createdAt,value
2024-04-03T00:00:16.178Z,5.37
2024-04-03T00:00:46.597Z,5.37
2024-04-03T00:01:17.559Z,5.38
2024-04-03T00:01:48.509Z,5.40
2024-04-03T00:02:19.441Z,5.41
2024-04-03T00:02:50.358Z,5.41
2024-04-03T00:03:21.279Z,5.42
2024-04-03T00:03:52.208Z,5.40
2024-04-03T00:04:54.063Z,5.33
2024-04-03T00:05:23.649Z,5.32
2024-04-03T00:05:55.569Z,5.29
2024-04-03T00:06:26.503Z,5.30
2024-04-03T00:06:57.418Z,5.29
2024-04-03T00:07:28.419Z,5.29
2024-04-03T00:07:59.312Z,5.30
2024-04-03T00:08:30.297Z,5.32
2024-04-03T00:09:01.210Z,5.30
2024-04-03T00:09:32.120Z,5.33
2024-04-03T00:10:03.797Z,5.35
2024-04-03T00:10:36.005Z,5.38
2024-04-03T00:11:04.722Z,5.38
2024-04-03T00:11:35.664Z,5.38
2024-04-03T00:12:06.641Z,5.40
2024-04-03T00:12:36.175Z,5.41
2024-04-03T00:13:08.155Z,5.42
2024-04-03T00:13:39.064Z,5.42
2024-04-03T00:14:09.979Z,5.45
2024-04-03T00:14:40.918Z,5.48
2024-04-03T00:15:11.823Z,5.48
2024-04-03T00:15:42.774Z,5.49
2024-04-03T00:16:13.693Z,5.48
2024-04-03T00:16:44.607Z,5.47
2024-04-03T00:17:46.452Z,5.48
2024-04-03T00:18:17.402Z,5.49
2024-04-03T00:18:48.303Z,5.47
2024-04-03T00:19:19.240Z,5.47
2024-04-03T00:19:52.280Z,5.47
2024-04-03T00:20:20.958Z,5.45
2024-04-03T00:20:51.862Z,5.45
2024-04-03T00:21:22.798Z,5.44
2024-04-03T00:21:53.742Z,5.45
2024-04-03T00:22:24.654Z,5.44
2024-04-03T00:22:55.593Z,5.45
2024-04-03T00:23:26.545Z,5.45
2024-04-03T00:23:57.481Z,5.45
2024-04-03T00:24:28.447Z,5.42
2024-04-03T00:24:59.398Z,5.44
2024-04-03T00:25:30.346Z,5.44
2024-04-03T00:26:01.376Z,5.44
2024-04-03T00:26:32.270Z,5.42
2024-04-03T00:27:03.205Z,5.42
2024-04-03T00:27:34.123Z,5.42
2024-04-03T00:28:05.047Z,5.41
2024-04-03T00:28:35.999Z,5.41
2024-04-03T00:29:06.961Z,5.41
2024-04-03T00:29:37.905Z,5.38
2024-04-03T00:30:08.831Z,5.32
2024-04-03T00:30:39.774Z,5.24
2024-04-03T00:31:10.709Z,5.22
2024-04-03T00:31:41.636Z,5.19
2024-04-03T00:32:12.548Z,5.19
2024-04-03T00:32:43.482Z,5.19
2024-04-03T00:33:14.423Z,5.17
2024-04-03T00:33:45.333Z,5.19
2024-04-03T00:34:16.361Z,5.19
2024-04-03T00:34:46.790Z,5.23
2024-04-03T00:35:17.683Z,5.24
2024-04-03T00:35:48.597Z,5.26
2024-04-03T00:36:19.514Z,5.27
2024-04-03T00:36:50.443Z,5.27
2024-04-03T00:37:21.363Z,5.27
2024-04-03T00:37:52.269Z,5.26
2024-04-03T00:38:23.212Z,5.23
2024-04-03T00:38:54.153Z,5.17
2024-04-03T00:39:25.119Z,5.19
2024-04-03T00:39:56.038Z,5.15
2024-04-03T00:40:26.984Z,5.14
2024-04-03T00:40:57.924Z,5.11
2024-04-03T00:41:28.830Z,5.11
2024-04-03T00:41:59.735Z,5.12
2024-04-03T00:42:30.649Z,5.12
2024-04-03T00:43:01.563Z,5.11
2024-04-03T00:43:32.475Z,5.11
2024-04-03T00:44:03.419Z,5.11
2024-04-03T00:44:34.535Z,5.09
2024-04-03T00:45:04.951Z,5.09
2024-04-03T00:45:35.886Z,5.05
2024-04-03T00:46:06.810Z,5.05
2024-04-03T00:46:37.728Z,5.02
2024-04-03T00:47:08.654Z,4.99
2024-04-03T00:47:39.579Z,4.93
2024-04-03T00:48:10.509Z,4.90
2024-04-03T00:48:41.418Z,4.86
2024-04-03T00:49:12.354Z,4.87
2024-04-03T00:49:43.301Z,4.86
2024-04-03T00:50:14.230Z,4.86
2024-04-03T00:50:45.136Z,4.87
2024-04-03T00:51:16.062Z,4.87
2024-04-03T00:51:47.000Z,4.88
2024-04-03T00:52:48.832Z,4.86
2024-04-03T00:53:19.638Z,4.87
2024-04-03T00:53:50.590Z,4.86
2024-04-03T00:54:21.495Z,4.84
2024-04-03T00:54:52.422Z,4.80
2024-04-03T00:55:23.342Z,4.86
2024-04-03T00:55:54.267Z,4.88
2024-04-03T00:56:25.196Z,4.87
2024-04-03T00:56:54.706Z,4.84
2024-04-03T00:57:26.619Z,4.80
2024-04-03T00:58:01.168Z,4.80
2024-04-03T00:58:28.546Z,4.79
2024-04-03T00:58:58.993Z,4.80
2024-04-03T00:59:28.549Z,4.79
2024-04-03T01:00:00.489Z,4.79
2024-04-03T01:00:31.420Z,4.80
2024-04-03T01:01:02.327Z,4.77
2024-04-03T01:01:33.237Z,4.79
2024-04-03T01:02:04.146Z,4.79
2024-04-03T01:02:35.096Z,4.77
2024-04-03T01:03:06.019Z,4.80
2024-04-03T01:03:36.936Z,4.80
2024-04-03T01:04:07.848Z,4.77
2024-04-03T01:04:38.761Z,4.80
2024-04-03T01:05:09.676Z,4.80
2024-04-03T01:05:40.630Z,4.84
2024-04-03T01:06:11.543Z,4.87
2024-04-03T01:06:42.492Z,4.87
2024-04-03T01:07:13.414Z,4.90
2024-04-03T01:07:42.928Z,4.88
2024-04-03T01:08:14.877Z,4.90
2024-04-03T01:08:45.803Z,4.88
2024-04-03T01:09:16.713Z,4.91
2024-04-03T01:09:47.632Z,4.91
2024-04-03T01:10:18.553Z,4.93
2024-04-03T01:10:49.505Z,4.94
2024-04-03T01:11:20.466Z,4.93
2024-04-03T01:11:51.395Z,4.91
2024-04-03T01:12:21.039Z,4.93
2024-04-03T01:12:52.975Z,4.91
2024-04-03T01:13:23.908Z,4.90
2024-04-03T01:13:54.812Z,4.90
2024-04-03T01:14:25.739Z,4.91
2024-04-03T01:14:56.646Z,4.91
2024-04-03T01:15:26.181Z,4.90
2024-04-03T01:15:58.387Z,4.90
2024-04-03T01:16:28.869Z,4.90
2024-04-03T01:16:59.781Z,4.90
2024-04-03T01:17:30.763Z,4.88
2024-04-03T01:18:01.705Z,4.90
2024-04-03T01:18:32.655Z,4.86
2024-04-03T01:19:03.561Z,4.84
2024-04-03T01:19:33.061Z,4.79
2024-04-03T01:20:04.992Z,4.77
2024-04-03T01:20:35.920Z,4.74
2024-04-03T01:21:06.834Z,4.72
2024-04-03T01:21:37.775Z,4.71
2024-04-03T01:22:39.563Z,4.72
2024-04-03T01:23:10.541Z,4.72
2024-04-03T01:23:41.498Z,4.74
2024-04-03T01:24:12.272Z,4.75
2024-04-03T01:24:43.199Z,4.79
2024-04-03T01:25:14.142Z,4.80
2024-04-03T01:25:52.537Z,4.83
2024-04-03T01:26:15.914Z,4.84
2024-04-03T01:26:45.444Z,4.86
2024-04-03T01:27:17.369Z,4.80
2024-04-03T01:27:48.272Z,4.77
2024-04-03T01:28:19.173Z,4.75
2024-04-03T01:28:50.108Z,4.71
2024-04-03T01:29:21.023Z,4.72
2024-04-03T01:29:51.940Z,4.71
2024-04-03T01:30:22.435Z,4.74
2024-04-03T01:30:52.090Z,4.74
2024-04-03T01:31:24.071Z,4.75
2024-04-03T01:31:53.636Z,4.74
2024-04-03T01:32:25.584Z,4.75
2024-04-03T01:32:56.513Z,4.75
2024-04-03T01:33:27.450Z,4.75
2024-04-03T01:33:57.963Z,4.75
2024-04-03T01:34:28.940Z,4.72
2024-04-03T01:34:59.877Z,4.68
2024-04-03T01:35:30.785Z,4.64
2024-04-03T01:36:01.723Z,4.61
2024-04-03T01:36:31.539Z,4.59
2024-04-03T01:37:02.963Z,4.61
2024-04-03T01:37:33.475Z,4.61
2024-04-03T01:38:04.392Z,4.61
2024-04-03T01:38:35.299Z,4.62
2024-04-03T01:39:06.225Z,4.62
2024-04-03T01:39:37.179Z,4.62
2024-04-03T01:40:08.092Z,4.65
2024-04-03T01:40:39.000Z,4.67
2024-04-03T01:41:10.007Z,4.67
2024-04-03T01:41:40.957Z,4.67
2024-04-03T01:42:11.888Z,4.69
2024-04-03T01:42:42.823Z,4.68
2024-04-03T01:43:13.735Z,4.69
2024-04-03T01:43:44.705Z,4.71
2024-04-03T01:44:15.653Z,4.72
2024-04-03T01:44:46.562Z,4.71
2024-04-03T01:45:17.468Z,4.72
2024-04-03T01:45:47.966Z,4.71
2024-04-03T01:46:18.982Z,4.69
2024-04-03T01:46:49.392Z,4.69
2024-04-03T01:47:20.461Z,4.71
2024-04-03T01:47:50.870Z,4.71
2024-04-03T01:48:21.929Z,4.74
2024-04-03T01:48:52.322Z,4.74
2024-04-03T01:49:23.305Z,4.74
2024-04-03T01:49:54.239Z,4.74
2024-04-03T01:50:25.332Z,4.74
2024-04-03T01:50:55.752Z,4.77
2024-04-03T01:51:26.664Z,4.75
2024-04-03T01:51:57.567Z,4.77
2024-04-03T01:52:28.508Z,4.79
2024-04-03T01:52:59.401Z,4.79
2024-04-03T01:53:30.321Z,4.79
2024-04-03T01:54:01.252Z,4.80
2024-04-03T01:54:32.247Z,4.80
2024-04-03T01:55:03.174Z,4.79
2024-04-03T01:55:34.116Z,4.77
2024-04-03T01:56:05.031Z,4.74
2024-04-03T01:56:34.631Z,4.71
2024-04-03T01:57:06.548Z,4.71
2024-04-03T01:57:37.491Z,4.67
2024-04-03T01:58:08.413Z,4.68
2024-04-03T01:58:39.344Z,4.67
2024-04-03T01:59:09.825Z,4.64
2024-04-03T01:59:40.754Z,4.64
2024-04-03T02:00:11.656Z,4.62
2024-04-03T02:00:42.595Z,4.64
2024-04-03T02:01:12.603Z,4.65
2024-04-03T02:01:44.419Z,4.68
2024-04-03T02:02:15.390Z,4.68
2024-04-03T02:02:46.539Z,4.67
2024-04-03T02:03:18.034Z,4.68
2024-04-03T02:03:47.139Z,4.68
2024-04-03T02:04:19.096Z,4.68
2024-04-03T02:04:50.034Z,4.68
2024-04-03T02:05:21.003Z,4.71
2024-04-03T02:05:51.458Z,4.72
2024-04-03T02:06:22.473Z,4.74
2024-04-03T02:06:53.404Z,4.77
2024-04-03T02:07:24.056Z,4.83
2024-04-03T02:07:54.482Z,4.83
2024-04-03T02:08:25.546Z,4.83
2024-04-03T02:08:55.956Z,4.83
2024-04-03T02:09:26.804Z,4.83
2024-04-03T02:09:57.706Z,4.75
2024-04-03T02:10:28.636Z,4.74
2024-04-03T02:10:58.180Z,4.69
2024-04-03T02:11:30.178Z,4.65
2024-04-03T02:12:00.202Z,4.61
2024-04-03T02:12:32.073Z,4.56
2024-04-03T02:13:03.011Z,4.50
2024-04-03T02:13:33.948Z,4.46
2024-04-03T02:14:04.482Z,4.46
2024-04-03T02:14:35.404Z,4.46
2024-04-03T02:15:04.912Z,4.46
2024-04-03T02:15:36.882Z,4.49
2024-04-03T02:16:07.842Z,4.49
2024-04-03T02:16:38.796Z,4.49
2024-04-03T02:17:09.713Z,4.50
2024-04-03T02:17:40.533Z,4.49
2024-04-03T02:18:11.559Z,4.46
2024-04-03T02:18:42.463Z,4.43
2024-04-03T02:19:13.441Z,4.42
2024-04-03T02:19:44.359Z,4.39
2024-04-03T02:20:15.384Z,4.36
2024-04-03T02:20:44.915Z,4.36
2024-04-03T02:21:16.454Z,4.36
2024-04-03T02:21:47.388Z,4.34
2024-04-03T02:22:18.315Z,4.32
2024-04-03T02:22:49.241Z,4.29
2024-04-03T02:23:28.822Z,4.28
2024-04-03T02:23:50.643Z,4.25
2024-04-03T02:24:21.539Z,4.24
2024-04-03T02:24:52.402Z,4.24
2024-04-03T02:25:23.328Z,4.24
2024-04-03T02:25:54.254Z,4.21
2024-04-03T02:26:25.205Z,4.18
2024-04-03T02:26:54.802Z,4.18
2024-04-03T02:27:26.312Z,4.14
2024-04-03T02:27:57.499Z,4.13
2024-04-03T02:28:27.928Z,4.14
2024-04-03T02:28:59.095Z,4.14
2024-04-03T02:29:29.493Z,4.11
2024-04-03T02:30:00.511Z,4.11
2024-04-03T02:30:31.425Z,4.08
2024-04-03T02:31:01.918Z,4.07
2024-04-03T02:31:32.847Z,4.10
2024-04-03T02:32:03.755Z,4.07
2024-04-03T02:32:34.691Z,4.08
2024-04-03T02:33:05.639Z,4.11
2024-04-03T02:33:35.538Z,4.13
2024-04-03T02:34:07.490Z,4.14
2024-04-03T02:34:38.009Z,4.17
2024-04-03T02:35:08.925Z,4.17
2024-04-03T02:36:10.773Z,4.18
2024-04-03T02:36:41.271Z,4.20
2024-04-03T02:37:12.186Z,4.17
2024-04-03T02:37:43.192Z,4.17
2024-04-03T02:38:14.129Z,4.17
2024-04-03T02:38:45.045Z,4.18
2024-04-03T02:39:16.092Z,4.18
2024-04-03T02:39:47.003Z,4.20
2024-04-03T02:40:17.942Z,4.20
2024-04-03T02:40:48.852Z,4.20
2024-04-03T02:41:19.362Z,4.20
2024-04-03T02:41:50.302Z,4.21
2024-04-03T02:42:21.194Z,4.21
2024-04-03T02:42:52.141Z,4.21
2024-04-03T02:43:23.072Z,4.24
2024-04-03T02:43:53.981Z,4.24
2024-04-03T02:44:24.901Z,4.26
2024-04-03T02:44:55.828Z,4.26
2024-04-03T02:45:25.758Z,4.25
2024-04-03T02:45:57.700Z,4.25
2024-04-03T02:46:28.677Z,4.25
2024-04-03T02:46:58.192Z,4.25
2024-04-03T02:47:30.211Z,4.26
2024-04-03T02:47:59.829Z,4.26
2024-04-03T02:48:31.743Z,4.26
2024-04-03T02:49:02.662Z,4.29
2024-04-03T02:49:33.601Z,4.29
2024-04-03T02:50:04.526Z,4.29
2024-04-03T02:50:34.477Z,4.31
2024-04-03T02:51:06.133Z,4.31
2024-04-03T02:51:37.100Z,4.29
2024-04-03T02:52:08.021Z,4.31
2024-04-03T02:52:38.952Z,4.32
2024-04-03T02:53:40.763Z,4.35
2024-04-03T02:54:11.672Z,4.34
2024-04-03T02:54:42.595Z,4.35
2024-04-03T02:55:14.108Z,4.32
2024-04-03T02:55:44.287Z,4.36
2024-04-03T02:56:15.183Z,4.35
2024-04-03T02:56:44.701Z,4.36
2024-04-03T02:57:16.630Z,4.38
2024-04-03T02:57:47.553Z,4.39
2024-04-03T02:58:18.473Z,4.43
2024-04-03T02:58:49.403Z,4.43
2024-04-03T02:59:20.308Z,4.43
2024-04-03T02:59:51.217Z,4.44
2024-04-03T03:00:22.215Z,4.46
2024-04-03T03:00:52.072Z,4.44
2024-04-03T03:01:23.981Z,4.44
2024-04-03T03:01:53.496Z,4.43
2024-04-03T03:02:25.440Z,4.43
2024-04-03T03:02:55.030Z,4.44
2024-04-03T03:03:26.932Z,4.44
2024-04-03T03:03:57.863Z,4.44
2024-04-03T03:04:28.802Z,4.46
2024-04-03T03:04:59.758Z,4.47
2024-04-03T03:05:31.946Z,4.46
2024-04-03T03:06:01.498Z,4.44
2024-04-03T03:06:32.430Z,4.43
2024-04-03T03:07:03.368Z,4.42
2024-04-03T03:07:34.320Z,4.46
2024-04-03T03:08:03.875Z,4.46
2024-04-03T03:08:35.828Z,4.44
2024-04-03T03:09:06.742Z,4.47
2024-04-03T03:09:37.698Z,4.43
2024-04-03T03:10:08.619Z,4.44
2024-04-03T03:10:39.554Z,4.43
2024-04-03T03:11:10.456Z,4.44
2024-04-03T03:11:41.390Z,4.42
2024-04-03T03:12:12.308Z,4.42
2024-04-03T03:12:43.233Z,4.39
2024-04-03T03:13:14.155Z,4.42
2024-04-03T03:13:45.097Z,4.43
2024-04-03T03:14:16.031Z,4.39
2024-04-03T03:14:46.979Z,4.36
2024-04-03T03:15:17.899Z,4.35
2024-04-03T03:15:48.888Z,4.35
2024-04-03T03:16:19.796Z,4.32
2024-04-03T03:16:49.416Z,4.31
2024-04-03T03:17:21.368Z,4.28
2024-04-03T03:17:52.283Z,4.26
2024-04-03T03:18:23.218Z,4.24
2024-04-03T03:18:53.693Z,4.24
2024-04-03T03:19:24.615Z,4.21
2024-04-03T03:19:55.548Z,4.21
2024-04-03T03:20:26.443Z,4.20
2024-04-03T03:20:57.351Z,4.18
2024-04-03T03:21:28.272Z,4.20
2024-04-03T03:21:59.200Z,4.24
2024-04-03T03:22:30.197Z,4.25
2024-04-03T03:22:59.800Z,4.24
2024-04-03T03:23:31.782Z,4.26
2024-04-03T03:24:01.294Z,4.28
2024-04-03T03:24:32.806Z,4.29
2024-04-03T03:25:03.720Z,4.26
2024-04-03T03:25:34.670Z,4.29
2024-04-03T03:26:05.586Z,4.24
2024-04-03T03:26:36.519Z,4.28
2024-04-03T03:27:07.522Z,4.29
2024-04-03T03:27:38.475Z,4.29
2024-04-03T03:28:09.809Z,4.31
2024-04-03T03:28:39.806Z,4.32
2024-04-03T03:29:10.753Z,4.32
2024-04-03T03:29:41.666Z,4.31
2024-04-03T03:30:12.589Z,4.31
2024-04-03T03:30:43.486Z,4.32
2024-04-03T03:31:14.417Z,4.31
2024-04-03T03:31:45.325Z,4.34
2024-04-03T03:32:16.265Z,4.36
2024-04-03T03:32:48.053Z,4.36
2024-04-03T03:33:17.963Z,4.38
2024-04-03T03:33:49.531Z,4.43
2024-04-03T03:34:19.445Z,4.44
2024-04-03T03:34:50.044Z,4.44
2024-04-03T03:35:20.867Z,4.43
2024-04-03T03:35:51.802Z,4.44
2024-04-03T03:36:22.754Z,4.43
2024-04-03T03:36:53.700Z,4.39
2024-04-03T03:37:24.623Z,4.38
2024-04-03T03:37:55.541Z,4.38
2024-04-03T03:38:26.042Z,4.38
2024-04-03T03:38:59.571Z,4.36
2024-04-03T03:39:27.468Z,4.36
2024-04-03T03:39:58.512Z,4.32
2024-04-03T03:40:30.102Z,4.35
2024-04-03T03:41:30.742Z,4.35
2024-04-03T03:42:01.678Z,4.35
2024-04-03T03:42:32.609Z,4.35
2024-04-03T03:43:02.538Z,4.36
2024-04-03T03:43:34.444Z,4.34
2024-04-03T03:44:03.973Z,4.35
2024-04-03T03:44:35.893Z,4.35
2024-04-03T03:45:06.839Z,4.38
2024-04-03T03:45:37.764Z,4.39
2024-04-03T03:46:08.675Z,4.42
2024-04-03T03:46:39.601Z,4.42
2024-04-03T03:47:10.538Z,4.44
2024-04-03T03:47:41.472Z,4.47
2024-04-03T03:48:12.392Z,4.47
2024-04-03T03:48:43.301Z,4.50
2024-04-03T03:49:14.218Z,4.49
2024-04-03T03:49:45.116Z,4.51
2024-04-03T03:50:16.063Z,4.51
2024-04-03T03:50:47.000Z,4.51
2024-04-03T03:51:17.899Z,4.53
2024-04-03T03:51:48.804Z,4.51
2024-04-03T03:52:19.720Z,4.50
2024-04-03T03:52:50.686Z,4.50
2024-04-03T03:53:21.612Z,4.49
2024-04-03T03:53:52.583Z,4.47
2024-04-03T03:54:23.503Z,4.47
2024-04-03T03:54:54.441Z,4.50
2024-04-03T03:55:25.350Z,4.50
2024-04-03T03:55:56.254Z,4.49
2024-04-03T03:56:29.517Z,4.51
2024-04-03T03:56:57.781Z,4.51
2024-04-03T03:57:28.795Z,4.53
2024-04-03T03:57:59.318Z,4.50
2024-04-03T03:58:30.254Z,4.51
2024-04-03T03:59:01.168Z,4.50
2024-04-03T03:59:32.107Z,4.50
2024-04-03T04:00:03.028Z,4.51
2024-04-03T04:00:34.026Z,4.53
2024-04-03T04:01:04.966Z,4.54
2024-04-03T04:01:35.885Z,4.56
2024-04-03T04:02:06.777Z,4.54
2024-04-03T04:02:37.696Z,4.56
2024-04-03T04:03:08.607Z,4.53
2024-04-03T04:03:39.534Z,4.50
2024-04-03T04:04:10.038Z,4.49
2024-04-03T04:04:40.977Z,4.46
2024-04-03T04:05:10.478Z,4.44
2024-04-03T04:05:42.424Z,4.46
2024-04-03T04:06:13.357Z,4.46
2024-04-03T04:06:42.878Z,4.44
2024-04-03T04:07:14.824Z,4.38
2024-04-03T04:07:45.750Z,4.39
2024-04-03T04:08:16.693Z,4.36
2024-04-03T04:08:47.215Z,4.36
2024-04-03T04:09:18.120Z,4.36
2024-04-03T04:09:49.116Z,4.36
2024-04-03T04:10:20.036Z,4.38
2024-04-03T04:10:51.108Z,4.38
2024-04-03T04:11:21.520Z,4.35
2024-04-03T04:11:51.353Z,4.35
2024-04-03T04:12:22.772Z,4.34
2024-04-03T04:12:53.708Z,4.34
2024-04-03T04:13:23.343Z,4.32
2024-04-03T04:13:55.296Z,4.32
2024-04-03T04:14:24.815Z,4.31
2024-04-03T04:14:56.747Z,4.34
2024-04-03T04:15:27.656Z,4.34
2024-04-03T04:15:58.579Z,4.34
2024-04-03T04:16:29.483Z,4.36
2024-04-03T04:16:59.346Z,4.36
2024-04-03T04:17:31.346Z,4.38
2024-04-03T04:18:01.813Z,4.36
2024-04-03T04:18:32.328Z,4.35
2024-04-03T04:19:03.205Z,4.36
2024-04-03T04:19:34.150Z,4.39
2024-04-03T04:20:04.647Z,4.39
2024-04-03T04:20:35.607Z,4.42
2024-04-03T04:21:06.498Z,4.42
2024-04-03T04:21:39.083Z,4.39
2024-04-03T04:22:08.054Z,4.38
2024-04-03T04:22:38.567Z,4.39
2024-04-03T04:23:09.430Z,4.38
2024-04-03T04:23:40.377Z,4.36
2024-04-03T04:24:42.110Z,4.35
2024-04-03T04:25:13.067Z,4.34
2024-04-03T04:25:42.613Z,4.34
2024-04-03T04:26:14.129Z,4.34
2024-04-03T04:26:44.994Z,4.29
2024-04-03T04:27:15.939Z,4.29
2024-04-03T04:27:45.553Z,4.31
2024-04-03T04:28:17.553Z,4.29
2024-04-03T04:28:47.302Z,4.28
2024-04-03T04:29:19.237Z,4.26
2024-04-03T04:30:19.963Z,4.24
2024-04-03T04:30:50.996Z,4.21
2024-04-03T04:31:22.945Z,4.24
2024-04-03T04:31:52.421Z,4.20
2024-04-03T04:32:24.388Z,4.20
2024-04-03T04:32:55.108Z,4.18
2024-04-03T04:33:25.981Z,4.18
2024-04-03T04:33:56.848Z,4.17
2024-04-03T04:35:00.901Z,4.18
2024-04-03T04:35:29.144Z,4.20
2024-04-03T04:36:00.013Z,4.18
2024-04-03T04:36:30.879Z,4.17
2024-04-03T04:37:01.770Z,4.17
2024-04-03T04:37:32.648Z,4.17
2024-04-03T04:38:03.528Z,4.14
2024-04-03T04:38:34.275Z,4.14
2024-04-03T04:39:05.126Z,4.14
2024-04-03T04:39:35.977Z,4.13
2024-04-03T04:40:06.835Z,4.13
2024-04-03T04:40:37.736Z,4.11
2024-04-03T04:41:08.600Z,4.11
2024-04-03T04:41:39.526Z,4.14
2024-04-03T04:42:10.389Z,4.13
2024-04-03T04:42:41.276Z,4.14
2024-04-03T04:43:12.146Z,4.11
2024-04-03T04:43:43.015Z,4.14
2024-04-03T04:44:13.869Z,4.13
2024-04-03T04:44:44.759Z,4.13
2024-04-03T04:45:15.638Z,4.16
2024-04-03T04:45:46.504Z,4.16
2024-04-03T04:46:17.393Z,4.17
2024-04-03T04:46:48.254Z,4.20
2024-04-03T04:47:50.002Z,4.20
2024-04-03T04:48:20.866Z,4.21
2024-04-03T04:48:51.744Z,4.24
2024-04-03T04:49:24.771Z,4.28
2024-04-03T04:49:53.637Z,4.28
2024-04-03T04:50:24.502Z,4.29
2024-04-03T04:50:55.441Z,4.29
2024-04-03T04:51:26.319Z,4.31
2024-04-03T04:51:57.181Z,4.31
2024-04-03T04:52:28.038Z,4.32
2024-04-03T04:52:58.901Z,4.34
2024-04-03T04:53:29.779Z,4.34
2024-04-03T04:54:00.633Z,4.35
2024-04-03T04:54:31.498Z,4.35
2024-04-03T04:55:02.367Z,4.36
2024-04-03T04:55:33.266Z,4.36
2024-04-03T04:56:04.143Z,4.35
2024-04-03T04:56:35.018Z,4.39
2024-04-03T04:57:05.880Z,4.39
2024-04-03T04:57:36.778Z,4.39
2024-04-03T04:58:08.526Z,4.39
2024-04-03T04:58:38.419Z,4.42
2024-04-03T04:59:09.326Z,4.43
2024-04-03T04:59:39.203Z,4.43
2024-04-03T05:00:41.908Z,4.43
2024-04-03T05:01:12.668Z,4.43
2024-04-03T05:01:43.649Z,4.46
2024-04-03T05:02:14.516Z,4.46
2024-04-03T05:02:45.410Z,4.47
2024-04-03T05:03:16.274Z,4.47
2024-04-03T05:03:47.364Z,4.49
2024-04-03T05:04:17.739Z,4.50
2024-04-03T05:04:48.631Z,4.50
2024-04-03T05:05:19.508Z,4.51
2024-04-03T05:05:50.439Z,4.49
2024-04-03T05:06:21.291Z,4.50
2024-04-03T05:06:52.160Z,4.50
2024-04-03T05:07:23.023Z,4.51
2024-04-03T05:07:53.924Z,4.50
2024-04-03T05:08:24.792Z,4.50
2024-04-03T05:08:55.683Z,4.51
2024-04-03T05:09:26.582Z,4.51
2024-04-03T05:09:57.521Z,4.51
2024-04-03T05:10:28.398Z,4.53
2024-04-03T05:10:59.311Z,4.56
2024-04-03T05:11:30.189Z,4.57
2024-04-03T05:12:01.037Z,4.57
2024-04-03T05:12:31.934Z,4.59
2024-04-03T05:13:02.790Z,4.59
2024-04-03T05:13:33.629Z,4.59
2024-04-03T05:14:04.477Z,4.59
2024-04-03T05:14:35.347Z,4.62
2024-04-03T05:15:05.328Z,4.64
2024-04-03T05:15:37.257Z,4.65
2024-04-03T05:16:08.114Z,4.65
2024-04-03T05:16:38.981Z,4.65
2024-04-03T05:17:10.391Z,4.68
2024-04-03T05:17:40.757Z,4.67
2024-04-03T05:18:11.617Z,4.68
2024-04-03T05:18:42.477Z,4.69
2024-04-03T05:19:13.319Z,4.69
2024-04-03T05:19:44.204Z,4.72
2024-04-03T05:20:15.112Z,4.72
2024-04-03T05:20:45.944Z,4.72
2024-04-03T05:21:16.896Z,4.75
2024-04-03T05:21:47.966Z,4.79
2024-04-03T05:22:18.312Z,4.80
2024-04-03T05:22:49.177Z,4.80
2024-04-03T05:23:19.936Z,4.83
2024-04-03T05:23:50.802Z,4.84
2024-04-03T05:24:21.663Z,4.84
2024-04-03T05:24:52.522Z,4.84
2024-04-03T05:25:23.399Z,4.86
2024-04-03T05:26:25.101Z,4.88
2024-04-03T05:26:55.972Z,4.88
2024-04-03T05:27:26.830Z,4.88
2024-04-03T05:27:57.894Z,4.88
2024-04-03T05:28:28.470Z,4.88
2024-04-03T05:28:58.896Z,4.91
2024-04-03T05:29:29.792Z,4.90
2024-04-03T05:30:00.639Z,4.93
2024-04-03T05:31:02.354Z,4.91
2024-04-03T05:31:32.322Z,4.91
2024-04-03T05:32:04.223Z,4.94
2024-04-03T05:32:35.113Z,4.94
2024-04-03T05:33:04.644Z,4.94
2024-04-03T05:33:36.502Z,4.94
2024-04-03T05:34:07.388Z,4.97
2024-04-03T05:34:37.372Z,5.01
2024-04-03T05:35:09.239Z,5.01
2024-04-03T05:35:40.121Z,5.01
2024-04-03T05:36:11.067Z,5.04
2024-04-03T05:36:41.923Z,5.02
2024-04-03T05:37:12.851Z,5.01
2024-04-03T05:37:43.702Z,5.02
2024-04-03T05:38:14.550Z,5.04
2024-04-03T05:38:45.428Z,5.04
2024-04-03T05:39:16.287Z,5.05
2024-04-03T05:39:47.143Z,5.05
2024-04-03T05:40:17.993Z,5.06
2024-04-03T05:40:58.207Z,5.09
2024-04-03T05:41:19.686Z,5.11
2024-04-03T05:41:50.550Z,5.12
2024-04-03T05:42:21.434Z,5.11
2024-04-03T05:42:52.348Z,5.12
2024-04-03T05:43:54.089Z,5.14
2024-04-03T05:44:24.904Z,5.15
2024-04-03T05:44:55.751Z,5.15
2024-04-03T05:45:26.672Z,5.17
2024-04-03T05:45:58.597Z,5.17
2024-04-03T05:46:27.156Z,5.17
2024-04-03T05:46:59.079Z,5.19
2024-04-03T05:47:29.962Z,5.17
2024-04-03T05:48:00.905Z,5.19
2024-04-03T05:48:31.792Z,5.20
2024-04-03T05:49:02.648Z,5.23
2024-04-03T05:49:33.542Z,5.23
2024-04-03T05:50:04.486Z,5.23
2024-04-03T05:50:35.345Z,5.26
2024-04-03T05:51:06.214Z,5.26
2024-04-03T05:51:37.178Z,5.29
2024-04-03T05:52:08.034Z,5.30
2024-04-03T05:52:38.973Z,5.30
2024-04-03T05:53:09.848Z,5.32
2024-04-03T05:53:40.704Z,5.33
2024-04-03T05:54:11.568Z,5.37
2024-04-03T05:54:42.448Z,5.40
2024-04-03T05:55:11.926Z,5.42
2024-04-03T05:55:43.772Z,5.44
2024-04-03T05:56:45.641Z,5.45
2024-04-03T05:57:15.606Z,5.48
2024-04-03T05:57:47.530Z,5.47
2024-04-03T05:58:18.393Z,5.49
2024-04-03T05:58:49.269Z,5.51
2024-04-03T05:59:19.050Z,5.52
2024-04-03T05:59:50.897Z,5.52
2024-04-03T06:00:21.775Z,5.55
2024-04-03T06:01:23.388Z,5.55
2024-04-03T06:01:54.231Z,5.55
2024-04-03T06:02:25.073Z,5.56
2024-04-03T06:02:56.007Z,5.58
2024-04-03T06:03:26.931Z,5.58
2024-04-03T06:03:57.289Z,5.60
2024-04-03T06:04:27.130Z,5.60
2024-04-03T06:04:59.103Z,5.63
2024-04-03T06:05:29.949Z,5.65
2024-04-03T06:06:00.813Z,5.66
2024-04-03T06:06:31.682Z,5.66
2024-04-03T06:07:02.563Z,5.69
2024-04-03T06:07:33.526Z,5.70
2024-04-03T06:08:03.937Z,5.73
2024-04-03T06:08:34.867Z,5.73
2024-04-03T06:09:05.732Z,5.74
2024-04-03T06:09:38.597Z,5.75
2024-04-03T06:10:07.571Z,5.77
2024-04-03T06:10:38.519Z,5.77
2024-04-03T06:11:09.425Z,5.77
2024-04-03T06:11:40.302Z,5.80
2024-04-03T06:12:11.179Z,5.83
2024-04-03T06:12:42.063Z,5.81
2024-04-03T06:13:12.939Z,5.83
2024-04-03T06:14:14.648Z,5.84
2024-04-03T06:14:44.477Z,5.85
2024-04-03T06:15:16.464Z,5.87
2024-04-03T06:15:47.330Z,5.87
2024-04-03T06:16:18.288Z,5.93
2024-04-03T06:16:49.189Z,5.93
2024-04-03T06:17:20.087Z,5.95
2024-04-03T06:17:51.056Z,5.98
2024-04-03T06:18:21.921Z,5.96
2024-04-03T06:18:52.784Z,5.98
2024-04-03T06:19:23.681Z,5.96
2024-04-03T06:19:54.564Z,6.01
2024-04-03T06:20:25.425Z,5.99
2024-04-03T06:20:56.358Z,5.99
2024-04-03T06:21:27.232Z,5.99
2024-04-03T06:21:57.198Z,5.99
2024-04-03T06:22:29.067Z,5.99
2024-04-03T06:22:59.951Z,6.01
2024-04-03T06:23:30.811Z,6.02
2024-04-03T06:24:01.682Z,6.01
2024-04-03T06:24:32.434Z,6.03
2024-04-03T06:25:03.295Z,6.05
2024-04-03T06:25:34.228Z,6.06
2024-04-03T06:26:05.127Z,6.08
2024-04-03T06:26:35.984Z,6.06
2024-04-03T06:27:06.834Z,6.08
2024-04-03T06:27:37.783Z,6.10
2024-04-03T06:28:08.686Z,6.13
2024-04-03T06:28:39.584Z,6.13
2024-04-03T06:29:10.424Z,6.14
2024-04-03T06:29:40.400Z,6.14
2024-04-03T06:30:12.293Z,6.17
2024-04-03T06:30:43.186Z,6.17
2024-04-03T06:31:14.066Z,6.20
2024-04-03T06:31:44.918Z,6.20
2024-04-03T06:32:15.806Z,6.21
2024-04-03T06:32:46.662Z,6.24
2024-04-03T06:33:17.537Z,6.27
2024-04-03T06:33:48.389Z,6.28
2024-04-03T06:34:19.248Z,6.30
2024-04-03T06:34:50.137Z,6.30
2024-04-03T06:35:21.010Z,6.32
2024-04-03T06:35:51.859Z,6.35
2024-04-03T06:36:22.708Z,6.36
2024-04-03T06:36:53.569Z,6.36
2024-04-03T06:37:24.462Z,6.39
2024-04-03T06:37:55.389Z,6.40
2024-04-03T06:38:26.255Z,6.42
2024-04-03T06:38:57.131Z,6.40
2024-04-03T06:39:58.842Z,6.45
2024-04-03T06:40:29.709Z,6.48
2024-04-03T06:41:00.572Z,6.50
2024-04-03T06:41:30.202Z,6.51
2024-04-03T06:42:02.185Z,6.51
2024-04-03T06:42:33.051Z,6.54
2024-04-03T06:43:03.903Z,6.55
2024-04-03T06:43:34.833Z,6.58
2024-04-03T06:44:05.697Z,6.58
2024-04-03T06:44:36.558Z,6.61
2024-04-03T06:45:07.412Z,6.63
2024-04-03T06:45:38.271Z,6.63
2024-04-03T06:46:09.244Z,6.64
2024-04-03T06:46:40.089Z,6.65
2024-04-03T06:47:10.959Z,6.68
2024-04-03T06:47:41.889Z,6.69
2024-04-03T06:48:12.888Z,6.72
2024-04-03T06:48:43.755Z,6.72
2024-04-03T06:49:14.619Z,6.75
2024-04-03T06:49:44.594Z,6.76
2024-04-03T06:50:16.473Z,6.78
2024-04-03T06:50:47.368Z,6.79
2024-04-03T06:51:18.230Z,6.82
2024-04-03T06:51:49.105Z,6.82
2024-04-03T06:52:20.035Z,6.83
2024-04-03T06:52:50.784Z,6.89
2024-04-03T06:53:21.768Z,6.90
2024-04-03T06:53:52.260Z,6.89
2024-04-03T06:54:23.143Z,6.90
2024-04-03T06:54:53.902Z,6.93
2024-04-03T06:55:24.783Z,6.93
2024-04-03T06:55:55.298Z,6.93
2024-04-03T06:56:26.180Z,6.94
2024-04-03T06:56:57.110Z,6.97
2024-04-03T06:57:26.922Z,6.97
2024-04-03T06:57:58.795Z,7.00
2024-04-03T06:58:29.675Z,7.00
2024-04-03T06:59:00.562Z,7.01
2024-04-03T06:59:31.503Z,7.01
2024-04-03T07:00:04.800Z,7.05
2024-04-03T07:00:33.167Z,7.04